createdAt,value
2023-02-27T00:00:20.576Z,8.80
2023-02-27T00:02:49.795Z,7.68
2023-02-27T00:05:17.379Z,10.00
2023-02-27T00:07:44.028Z,7.25
2023-02-27T00:10:13.052Z,10.02
2023-02-27T00:12:40.218Z,12.90
2023-02-27T00:15:17.011Z,7.63
2023-02-27T00:17:44.118Z,9.27
2023-02-27T00:20:14.114Z,11.25
2023-02-27T00:22:41.805Z,11.15
2023-02-27T00:25:10.125Z,10.18
2023-02-27T00:27:36.946Z,6.97
2023-02-27T00:30:10.134Z,11.57
2023-02-27T00:32:37.016Z,13.82
2023-02-27T00:35:09.712Z,5.15
2023-02-27T00:37:37.503Z,7.75
2023-02-27T00:40:05.929Z,6.60
2023-02-27T00:42:33.331Z,5.80
2023-02-27T00:45:02.538Z,9.27
2023-02-27T00:47:31.212Z,11.18
2023-02-27T00:49:58.579Z,8.52
2023-02-27T00:52:26.278Z,17.20
2023-02-27T00:54:53.643Z,11.50
2023-02-27T00:57:21.830Z,9.55
2023-02-27T00:59:50.243Z,13.63
2023-02-27T01:02:17.072Z,12.82
2023-02-27T01:04:44.162Z,7.85
2023-02-27T01:07:10.906Z,11.45
2023-02-27T01:09:37.979Z,12.48
2023-02-27T01:12:05.275Z,13.18
2023-02-27T01:14:32.273Z,9.52
2023-02-27T01:16:58.924Z,13.43
2023-02-27T01:19:26.607Z,14.68
2023-02-27T01:21:53.345Z,9.80
2023-02-27T01:24:22.124Z,7.88
2023-02-27T01:26:49.117Z,14.43
2023-02-27T01:29:16.488Z,13.25
2023-02-27T01:31:43.326Z,8.52
2023-02-27T01:34:11.480Z,16.17
2023-02-27T01:36:40.054Z,18.20
2023-02-27T01:39:07.748Z,21.25
2023-02-27T01:41:34.460Z,21.55
2023-02-27T01:44:09.459Z,18.38
2023-02-27T01:46:37.941Z,22.52
2023-02-27T01:49:15.886Z,15.75
2023-02-27T01:51:47.558Z,10.60
2023-02-27T01:54:19.520Z,11.43
2023-02-27T01:56:46.983Z,11.52
2023-02-27T01:59:15.715Z,13.23
2023-02-27T02:01:43.008Z,19.17
2023-02-27T02:04:31.338Z,18.90
2023-02-27T02:07:01.844Z,14.90
2023-02-27T02:09:30.404Z,12.95
2023-02-27T02:11:58.536Z,14.07
2023-02-27T02:14:25.815Z,20.60
2023-02-27T02:17:07.496Z,18.73
2023-02-27T02:20:01.363Z,20.33
2023-02-27T02:22:55.884Z,19.02
2023-02-27T02:25:32.039Z,16.27
2023-02-27T02:28:35.032Z,17.60
2023-02-27T02:31:36.121Z,16.17
2023-02-27T02:34:16.694Z,19.67
2023-02-27T02:36:59.013Z,22.85
2023-02-27T02:39:45.852Z,17.07
2023-02-27T02:42:38.678Z,9.32
2023-02-27T02:45:20.452Z,11.38
2023-02-27T02:48:01.726Z,19.88
2023-02-27T02:50:43.099Z,9.88
2023-02-27T02:53:12.754Z,15.20
2023-02-27T02:56:06.527Z,18.08
2023-02-27T03:01:14.223Z,20.17
2023-02-27T03:03:55.817Z,18.95
2023-02-27T03:06:31.052Z,24.48
2023-02-27T03:09:11.479Z,17.85
2023-02-27T03:11:42.345Z,21.30
2023-02-27T03:14:46.696Z,18.48
2023-02-27T03:17:19.595Z,22.58
2023-02-27T03:22:41.038Z,24.25
2023-02-27T03:25:11.847Z,18.70
2023-02-27T03:27:48.085Z,12.55
2023-02-27T03:30:30.821Z,14.63
2023-02-27T03:33:05.469Z,16.02
2023-02-27T03:35:59.219Z,14.77
2023-02-27T03:39:00.173Z,10.90
2023-02-27T03:42:02.935Z,8.93
2023-02-27T03:45:13.202Z,10.48
2023-02-27T03:47:40.310Z,8.75
2023-02-27T03:50:08.851Z,10.63
2023-02-27T03:52:36.357Z,11.40
2023-02-27T03:55:09.679Z,11.40
2023-02-27T03:57:37.820Z,16.50
2023-02-27T04:00:06.829Z,8.05
2023-02-27T04:02:41.895Z,10.10
2023-02-27T04:05:09.571Z,13.95
2023-02-27T04:08:25.840Z,12.35
2023-02-27T04:11:16.635Z,17.27
2023-02-27T04:14:23.440Z,9.70
2023-02-27T04:16:50.319Z,12.73
2023-02-27T04:19:20.320Z,10.90
2023-02-27T04:21:49.885Z,15.23
2023-02-27T04:24:29.051Z,13.52
2023-02-27T04:27:14.342Z,20.38
2023-02-27T04:29:56.065Z,11.00
2023-02-27T04:32:43.186Z,12.65
2023-02-27T04:35:19.545Z,12.40
2023-02-27T04:38:00.468Z,13.38
2023-02-27T04:40:42.525Z,10.05
2023-02-27T04:43:12.284Z,12.25
2023-02-27T04:45:41.645Z,14.90
2023-02-27T04:48:21.986Z,11.10
2023-02-27T04:51:02.359Z,12.60
2023-02-27T04:53:51.151Z,15.60
2023-02-27T04:56:26.186Z,13.75
2023-02-27T04:59:01.811Z,9.68
2023-02-27T05:01:39.828Z,17.48
2023-02-27T05:04:12.273Z,12.77
2023-02-27T05:09:26.471Z,15.13
2023-02-27T05:12:01.831Z,16.30
2023-02-27T05:14:32.388Z,13.70
2023-02-27T05:17:05.732Z,17.15
2023-02-27T05:19:33.833Z,11.18
2023-02-27T05:22:28.429Z,10.65
2023-02-27T05:25:19.930Z,12.45
2023-02-27T05:27:57.860Z,13.38
2023-02-27T05:30:36.789Z,10.25
2023-02-27T05:33:17.827Z,19.38
2023-02-27T05:35:51.535Z,13.43
2023-02-27T05:38:33.540Z,10.00
2023-02-27T05:41:30.611Z,12.40
2023-02-27T05:44:06.308Z,10.10
2023-02-27T05:46:37.603Z,14.55
2023-02-27T05:49:11.508Z,11.70
2023-02-27T05:51:42.634Z,12.60
2023-02-27T05:54:16.564Z,14.25
2023-02-27T05:56:47.033Z,11.90
2023-02-27T05:59:38.886Z,12.15
2023-02-27T06:02:06.476Z,18.95
2023-02-27T06:04:33.122Z,11.60
2023-02-27T06:07:00.523Z,13.15
2023-02-27T06:09:27.254Z,27.08
2023-02-27T06:11:54.489Z,16.55
2023-02-27T06:14:21.140Z,17.10
2023-02-27T06:16:48.360Z,14.48
2023-02-27T06:19:15.056Z,16.55
2023-02-27T06:21:42.427Z,16.88
2023-02-27T06:24:09.112Z,16.58
2023-02-27T06:26:36.105Z,18.60
2023-02-27T06:29:02.722Z,13.20
2023-02-27T06:31:29.973Z,14.85
2023-02-27T06:33:56.658Z,14.80
2023-02-27T06:36:23.916Z,18.48
2023-02-27T06:38:50.546Z,12.48
2023-02-27T06:41:17.456Z,17.80
2023-02-27T06:43:44.875Z,14.70
2023-02-27T06:46:11.574Z,12.57
2023-02-27T06:48:38.912Z,15.20
2023-02-27T06:51:05.656Z,16.13
2023-02-27T06:53:33.647Z,17.35
2023-02-27T06:56:00.228Z,15.32
2023-02-27T06:58:27.571Z,13.10
2023-02-27T07:00:54.176Z,17.35
2023-02-27T07:03:21.504Z,14.20
2023-02-27T07:05:48.154Z,18.13
2023-02-27T07:08:17.807Z,14.82
2023-02-27T07:10:46.991Z,15.20
2023-02-27T07:13:17.314Z,18.60
2023-02-27T07:15:45.199Z,24.05
2023-02-27T07:18:12.488Z,20.65
2023-02-27T07:20:40.164Z,15.55
2023-02-27T07:23:07.510Z,20.30
2023-02-27T07:25:34.223Z,20.27
2023-02-27T07:28:01.457Z,12.27
2023-02-27T07:30:30.755Z,22.50
2023-02-27T07:32:58.058Z,18.10
2023-02-27T07:35:24.730Z,14.35
2023-02-27T07:37:52.018Z,17.02
2023-02-27T07:40:18.748Z,20.25
2023-02-27T07:42:48.408Z,15.30
2023-02-27T07:45:18.417Z,17.20
2023-02-27T07:47:46.545Z,18.17
2023-02-27T07:50:14.047Z,16.83
2023-02-27T07:52:42.005Z,14.88
2023-02-27T07:55:11.095Z,15.05
2023-02-27T07:57:38.141Z,23.40
2023-02-27T08:00:07.028Z,16.95
2023-02-27T08:02:39.176Z,17.08
2023-02-27T08:05:07.219Z,12.52
2023-02-27T08:07:33.878Z,12.80
2023-02-27T08:10:01.343Z,10.23
2023-02-27T08:12:27.976Z,20.35
2023-02-27T08:14:55.321Z,20.33
2023-02-27T08:17:21.961Z,12.57
2023-02-27T08:19:49.410Z,17.08
2023-02-27T08:22:16.125Z,13.05
2023-02-27T08:24:43.454Z,16.33
2023-02-27T08:27:10.117Z,23.50
2023-02-27T08:29:37.390Z,26.38
2023-02-27T08:32:04.731Z,13.80
2023-02-27T08:34:32.063Z,24.02
2023-02-27T08:36:59.091Z,12.85
2023-02-27T08:39:26.414Z,16.50
2023-02-27T08:41:53.172Z,11.70
2023-02-27T08:44:20.690Z,16.10
2023-02-27T08:46:47.323Z,20.20
2023-02-27T08:49:15.030Z,15.02
2023-02-27T08:51:41.762Z,18.65
2023-02-27T08:54:09.109Z,15.70
2023-02-27T08:56:36.895Z,18.70
2023-02-27T08:59:04.600Z,14.18
2023-02-27T09:01:34.332Z,22.52
2023-02-27T09:04:03.390Z,17.33
2023-02-27T09:06:31.251Z,15.38
2023-02-27T09:08:59.211Z,11.82
2023-02-27T09:11:27.801Z,16.52
2023-02-27T09:13:55.887Z,17.27
2023-02-27T09:16:23.132Z,13.07
2023-02-27T09:18:51.375Z,14.48
2023-02-27T09:21:18.112Z,14.05
2023-02-27T09:23:45.373Z,12.40
2023-02-27T09:26:12.015Z,14.35
2023-02-27T09:28:42.136Z,17.48
2023-02-27T09:31:09.958Z,14.98
2023-02-27T09:33:38.799Z,15.57
2023-02-27T09:36:07.013Z,16.67
2023-02-27T09:38:35.807Z,18.83
2023-02-27T09:41:05.060Z,17.23
2023-02-27T09:43:47.815Z,16.60
2023-02-27T09:46:20.480Z,14.80
2023-02-27T09:48:52.060Z,18.92
2023-02-27T09:51:19.798Z,21.80
2023-02-27T09:53:50.284Z,17.17
2023-02-27T09:56:26.512Z,10.15
2023-02-27T09:58:56.684Z,11.30
2023-02-27T10:01:29.215Z,14.88
2023-02-27T10:04:31.712Z,13.98
2023-02-27T10:07:16.722Z,22.70
2023-02-27T10:09:55.930Z,16.98
2023-02-27T10:12:54.442Z,13.23
2023-02-27T10:15:30.664Z,14.00
2023-02-27T10:18:16.486Z,14.80
2023-02-27T10:23:39.107Z,19.38
2023-02-27T10:26:07.754Z,19.45
2023-02-27T10:28:34.731Z,20.35
2023-02-27T10:31:02.905Z,15.13
2023-02-27T10:33:41.588Z,22.77
2023-02-27T10:36:14.110Z,13.50
2023-02-27T10:38:56.287Z,13.82
2023-02-27T10:41:23.710Z,11.52
2023-02-27T10:43:55.787Z,10.13
2023-02-27T10:46:27.229Z,10.90
2023-02-27T10:48:54.575Z,7.75
2023-02-27T10:51:26.356Z,5.88
2023-02-27T10:54:25.048Z,8.75
2023-02-27T10:56:55.421Z,6.20
2023-02-27T10:59:27.289Z,11.20
2023-02-27T11:02:03.046Z,7.40
2023-02-27T11:04:40.143Z,8.10
2023-02-27T11:07:11.456Z,7.00
2023-02-27T11:09:38.351Z,9.90
2023-02-27T11:12:26.363Z,11.77
2023-02-27T11:14:59.735Z,8.95
2023-02-27T11:17:34.318Z,6.15
2023-02-27T11:20:07.011Z,8.57
2023-02-27T11:22:33.702Z,7.00
2023-02-27T11:25:21.141Z,9.82
2023-02-27T11:27:49.152Z,9.48
2023-02-27T11:30:27.436Z,9.45
2023-02-27T11:32:56.901Z,10.05
2023-02-27T11:35:26.745Z,9.65
2023-02-27T11:37:56.040Z,11.27
2023-02-27T11:40:31.940Z,7.32
2023-02-27T11:43:03.668Z,11.68
2023-02-27T11:46:05.154Z,7.70
2023-02-27T11:48:34.852Z,7.70
2023-02-27T11:51:07.135Z,9.23
2023-02-27T11:53:49.049Z,13.97
2023-02-27T11:56:25.673Z,14.70
2023-02-27T11:59:32.546Z,8.43
2023-02-27T12:02:12.636Z,8.45
2023-02-27T12:05:02.892Z,8.18
2023-02-27T12:07:41.048Z,7.38
2023-02-27T12:10:24.236Z,8.38
2023-02-27T12:15:48.265Z,13.20
2023-02-27T12:18:21.493Z,8.27
2023-02-27T12:23:50.024Z,5.88
2023-02-27T12:26:28.346Z,7.30
2023-02-27T12:29:19.139Z,6.57
2023-02-27T12:32:17.475Z,8.98
2023-02-27T12:35:01.947Z,9.95
2023-02-27T12:37:30.663Z,7.63
2023-02-27T12:40:00.223Z,12.10
2023-02-27T12:42:39.500Z,7.57
2023-02-27T12:45:29.325Z,5.03
2023-02-27T12:48:18.233Z,5.38
2023-02-27T12:51:08.674Z,5.90
2023-02-27T12:53:57.502Z,5.22
2023-02-27T12:56:41.267Z,10.77
2023-02-27T12:59:29.505Z,10.30
2023-02-27T13:02:16.319Z,7.70
2023-02-27T13:04:48.835Z,8.00
2023-02-27T13:07:25.129Z,6.97
2023-02-27T13:10:03.266Z,8.70
2023-02-27T13:12:59.358Z,5.60
2023-02-27T13:15:38.361Z,4.85
2023-02-27T13:18:28.759Z,4.53
2023-02-27T13:21:07.994Z,7.35
2023-02-27T13:23:49.808Z,8.30
2023-02-27T13:26:37.752Z,10.38
2023-02-27T13:29:06.184Z,4.90
2023-02-27T13:31:43.067Z,8.68
2023-02-27T13:34:28.305Z,13.20
2023-02-27T13:37:04.199Z,7.38
2023-02-27T13:39:41.134Z,7.53
2023-02-27T13:42:30.737Z,8.65
2023-02-27T13:45:06.141Z,11.20
2023-02-27T13:47:41.483Z,9.35
2023-02-27T13:50:17.358Z,9.77
2023-02-27T13:52:45.578Z,7.25
2023-02-27T13:55:28.952Z,6.80
2023-02-27T13:57:59.826Z,6.47
2023-02-27T14:00:29.539Z,6.78
2023-02-27T14:03:03.127Z,8.15
2023-02-27T14:05:39.614Z,12.25
2023-02-27T14:08:15.208Z,7.05
2023-02-27T14:10:57.203Z,7.43
2023-02-27T14:13:54.946Z,12.00
2023-02-27T14:16:40.167Z,13.70
2023-02-27T14:19:16.631Z,12.80
2023-02-27T14:22:02.909Z,11.20
2023-02-27T14:24:44.818Z,10.45
2023-02-27T14:27:24.950Z,8.82
2023-02-27T14:29:56.756Z,8.73
2023-02-27T14:32:33.054Z,9.98
2023-02-27T14:35:00.781Z,6.05
2023-02-27T14:37:27.914Z,14.05
2023-02-27T14:39:57.345Z,11.98
2023-02-27T14:42:47.682Z,11.13
2023-02-27T14:45:20.733Z,13.23
2023-02-27T14:47:48.847Z,9.98
2023-02-27T14:50:24.966Z,14.35
2023-02-27T14:52:51.688Z,15.63
2023-02-27T14:55:29.753Z,8.15
2023-02-27T14:58:01.184Z,6.05
2023-02-27T15:00:33.249Z,10.00
2023-02-27T15:03:00.780Z,6.68
2023-02-27T15:05:34.704Z,7.97
2023-02-27T15:08:01.816Z,12.65
2023-02-27T15:10:33.633Z,9.18
2023-02-27T15:13:01.908Z,10.00
2023-02-27T15:15:30.024Z,8.55
2023-02-27T15:17:56.672Z,15.13
2023-02-27T15:20:27.366Z,14.35
2023-02-27T15:22:54.241Z,11.15
2023-02-27T15:25:29.490Z,13.63
2023-02-27T15:28:07.677Z,13.98
2023-02-27T15:30:35.145Z,10.57
2023-02-27T15:33:02.735Z,7.30
2023-02-27T15:35:37.652Z,8.90
2023-02-27T15:38:04.651Z,17.17
2023-02-27T15:40:33.312Z,6.55
2023-02-27T15:43:01.426Z,5.93
2023-02-27T15:45:34.658Z,9.25
2023-02-27T15:48:03.162Z,8.80
2023-02-27T15:50:43.502Z,9.13
2023-02-27T15:53:25.170Z,22.98
2023-02-27T15:55:55.596Z,35.80
2023-02-27T15:58:24.808Z,9.48
2023-02-27T16:01:02.897Z,9.07
2023-02-27T16:03:37.165Z,4.93
2023-02-27T16:06:12.615Z,6.30
2023-02-27T16:08:50.817Z,14.63
2023-02-27T16:11:22.988Z,7.10
2023-02-27T16:13:50.882Z,13.98
2023-02-27T16:16:37.668Z,7.05
2023-02-27T16:19:26.157Z,6.15
2023-02-27T16:22:06.853Z,5.90
2023-02-27T16:24:33.776Z,12.85
2023-02-27T16:27:02.026Z,15.70
2023-02-27T16:29:35.631Z,17.48
2023-02-27T16:32:04.310Z,16.35
2023-02-27T16:34:45.551Z,10.85
2023-02-27T16:37:23.637Z,22.52
2023-02-27T16:39:52.194Z,20.50
2023-02-27T16:42:19.596Z,24.60
2023-02-27T16:44:46.468Z,29.83
2023-02-27T16:47:13.756Z,11.73
2023-02-27T16:49:40.579Z,10.82
2023-02-27T16:52:11.275Z,14.18
2023-02-27T16:54:37.928Z,10.25
2023-02-27T16:57:05.504Z,11.77
2023-02-27T16:59:34.903Z,9.75
2023-02-27T17:02:05.983Z,8.48
2023-02-27T17:04:32.929Z,10.98
2023-02-27T17:07:01.718Z,38.47
2023-02-27T17:09:29.148Z,18.02
2023-02-27T17:11:57.532Z,13.30
2023-02-27T17:14:24.772Z,7.97
2023-02-27T17:16:51.906Z,10.60
2023-02-27T17:19:21.237Z,14.32
2023-02-27T17:21:48.930Z,9.35
2023-02-27T17:24:15.610Z,7.25
2023-02-27T17:26:43.058Z,7.75
2023-02-27T17:29:10.026Z,6.50
2023-02-27T17:31:37.943Z,8.40
2023-02-27T17:34:05.360Z,12.05
2023-02-27T17:36:32.822Z,9.88
2023-02-27T17:39:02.683Z,5.78
2023-02-27T17:41:31.118Z,8.20
2023-02-27T17:43:58.625Z,10.88
2023-02-27T17:46:27.712Z,9.35
2023-02-27T17:48:59.801Z,5.05
2023-02-27T17:51:28.923Z,6.85
2023-02-27T17:53:57.259Z,6.18
2023-02-27T17:56:24.273Z,11.00
2023-02-27T17:58:51.210Z,12.73
2023-02-27T18:01:23.009Z,12.77
2023-02-27T18:03:50.147Z,9.88
2023-02-27T18:06:16.915Z,8.27
2023-02-27T18:08:43.600Z,12.75
2023-02-27T18:11:12.454Z,14.85
2023-02-27T18:13:40.354Z,9.10
2023-02-27T18:16:08.012Z,10.73
2023-02-27T18:18:36.433Z,10.57
2023-02-27T18:21:15.481Z,9.45
2023-02-27T18:23:43.359Z,8.38
2023-02-27T18:26:27.192Z,9.80
2023-02-27T18:28:57.012Z,11.10
2023-02-27T18:31:27.659Z,7.70
2023-02-27T18:33:54.594Z,9.27
2023-02-27T18:36:22.035Z,8.45
2023-02-27T18:38:48.765Z,7.93
2023-02-27T18:41:16.104Z,8.20
2023-02-27T18:43:44.111Z,9.13
2023-02-27T18:46:12.998Z,7.68
2023-02-27T18:48:40.831Z,8.05
2023-02-27T18:51:12.657Z,8.60
2023-02-27T18:53:40.994Z,8.48
2023-02-27T18:56:09.261Z,9.40
2023-02-27T18:58:36.661Z,9.23
2023-02-27T19:01:05.276Z,12.07
2023-02-27T19:03:32.322Z,8.68
2023-02-27T19:05:59.945Z,11.60
2023-02-27T19:08:30.240Z,7.90
2023-02-27T19:10:58.432Z,9.60
2023-02-27T19:13:26.036Z,10.90
2023-02-27T19:15:53.866Z,10.73
2023-02-27T19:18:20.724Z,9.90
2023-02-27T19:20:48.238Z,7.68
2023-02-27T19:23:14.980Z,17.42
2023-02-27T19:25:42.729Z,21.73
2023-02-27T19:28:12.114Z,16.75
2023-02-27T19:30:40.100Z,15.10
2023-02-27T19:33:06.765Z,17.08
2023-02-27T19:35:34.100Z,18.40
2023-02-27T19:38:00.837Z,21.20
2023-02-27T19:40:28.250Z,18.52
2023-02-27T19:42:57.228Z,17.20
2023-02-27T19:45:24.515Z,18.38
2023-02-27T19:47:51.171Z,16.25
2023-02-27T19:50:19.414Z,11.40
2023-02-27T19:52:46.145Z,15.43
2023-02-27T19:55:13.751Z,14.85
2023-02-27T19:57:40.574Z,37.80
2023-02-27T20:00:09.308Z,24.52
2023-02-27T20:02:42.151Z,20.45
2023-02-27T20:05:09.638Z,15.50
2023-02-27T20:07:36.250Z,23.60
2023-02-27T20:10:04.052Z,42.72
2023-02-27T20:12:30.688Z,49.80
2023-02-27T20:14:57.965Z,32.38
2023-02-27T20:17:24.575Z,29.67
2023-02-27T20:19:51.533Z,27.75
2023-02-27T20:22:18.141Z,20.60
2023-02-27T20:24:44.825Z,19.55
2023-02-27T20:27:11.957Z,18.10
2023-02-27T20:29:39.245Z,13.73
2023-02-27T20:32:06.108Z,14.75
2023-02-27T20:34:33.469Z,13.35
2023-02-27T20:37:00.306Z,14.80
2023-02-27T20:39:29.143Z,13.25
2023-02-27T20:41:56.020Z,13.90
2023-02-27T20:44:23.335Z,11.98
2023-02-27T20:46:50.049Z,13.93
2023-02-27T20:49:17.731Z,11.95
2023-02-27T20:51:44.931Z,15.23
2023-02-27T20:54:16.775Z,15.50
2023-02-27T20:56:44.084Z,14.65
2023-02-27T20:59:15.088Z,13.55
2023-02-27T21:01:43.062Z,13.70
2023-02-27T21:04:10.549Z,14.98
2023-02-27T21:06:37.546Z,18.42
2023-02-27T21:09:06.336Z,15.38
2023-02-27T21:11:34.324Z,23.58
2023-02-27T21:14:09.444Z,18.80
2023-02-27T21:16:38.284Z,14.95
2023-02-27T21:19:05.727Z,15.43
2023-02-27T21:21:34.059Z,16.63
2023-02-27T21:24:01.810Z,16.83
2023-02-27T21:26:35.636Z,12.68
2023-02-27T21:29:08.112Z,10.93
2023-02-27T21:31:37.568Z,15.93
2023-02-27T21:34:07.397Z,15.48
2023-02-27T21:36:37.401Z,16.15
2023-02-27T21:39:07.076Z,15.18
2023-02-27T21:41:35.247Z,13.80
2023-02-27T21:44:05.681Z,10.52
2023-02-27T21:46:32.994Z,14.57
2023-02-27T21:49:00.606Z,14.45
2023-02-27T21:51:39.293Z,20.23
2023-02-27T21:54:09.521Z,11.75
2023-02-27T21:56:36.457Z,13.68
2023-02-27T21:59:04.726Z,14.55
2023-02-27T22:01:32.177Z,11.95
2023-02-27T22:04:00.099Z,17.80
2023-02-27T22:06:28.797Z,20.98
2023-02-27T22:08:57.480Z,17.50
2023-02-27T22:11:26.964Z,28.00
2023-02-27T22:13:54.077Z,15.02
2023-02-27T22:16:21.976Z,18.15
2023-02-27T22:18:49.391Z,17.05
2023-02-27T22:21:19.606Z,15.98
2023-02-27T22:23:46.928Z,12.77
2023-02-27T22:26:21.167Z,20.00
2023-02-27T22:28:48.386Z,17.88
2023-02-27T22:31:19.153Z,17.30
2023-02-27T22:33:48.442Z,16.90
2023-02-27T22:36:19.329Z,13.73
2023-02-27T22:38:46.716Z,14.25
2023-02-27T22:41:18.935Z,20.80
2023-02-27T22:43:46.302Z,17.47
2023-02-27T22:46:17.204Z,12.80
2023-02-27T22:48:44.738Z,16.77
2023-02-27T22:51:14.352Z,17.75
2023-02-27T22:53:46.212Z,15.82
2023-02-27T22:56:15.469Z,13.18
2023-02-27T22:58:45.046Z,15.25
2023-02-27T23:01:17.962Z,14.50
2023-02-27T23:03:47.020Z,21.50
2023-02-27T23:06:16.777Z,16.30
2023-02-27T23:08:44.564Z,21.58
2023-02-27T23:11:13.293Z,24.60
2023-02-27T23:13:40.323Z,25.42
2023-02-27T23:16:11.924Z,26.75
2023-02-27T23:18:40.046Z,21.80
2023-02-27T23:21:08.462Z,24.30
2023-02-27T23:23:35.793Z,19.48
2023-02-27T23:26:03.830Z,17.10
2023-02-27T23:28:31.013Z,17.83
2023-02-27T23:30:59.749Z,23.20
2023-02-27T23:33:27.478Z,23.58
2023-02-27T23:35:54.988Z,15.32
2023-02-27T23:38:21.847Z,24.00
2023-02-27T23:40:49.096Z,15.27
2023-02-27T23:43:28.196Z,12.73
2023-02-27T23:45:55.481Z,16.15
2023-02-27T23:48:23.098Z,22.98
2023-02-27T23:50:49.881Z,17.00
2023-02-27T23:53:17.139Z,24.75
2023-02-27T23:55:43.956Z,14.88
2023-02-27T23:58:11.219Z,15.48
